Time;durP1;ratioP1;P1;durP2;ratioP2;P2;SDS_P1;SDS_P2;PMS_P1;PMS_P2;Temp;Humidity;BMP_temperature;BMP_pressure;BME280_temperature;BME280_humidity;BME280_pressure;Samples;Min_cycle;Max_cycle;Signal;HPM_P1;HPM_P2
2021/12/23 00:01:51;;;;;;;33.87;15.70;;;;;;;1.13;47.67;101644.38;5391854;32;35537;-66
2021/12/23 00:04:54;;;;;;;37.60;17.67;;;;;;;1.23;47.27;101638.56;5390975;32;34450;-70
2021/12/23 00:07:57;;;;;;;34.80;17.27;;;;;;;0.69;48.05;101650.41;5391099;32;34066;-64
2021/12/23 00:11:01;;;;;;;36.85;17.25;;;;;;;1.14;47.96;101638.34;5388658;32;34582;-71
2021/12/23 00:14:06;;;;;;;36.40;17.73;;;;;;;0.94;48.35;101635.38;5388015;32;35188;-70
2021/12/23 00:17:59;;;;;;;37.40;16.33;;;;;;;1.20;47.85;101628.12;5378849;32;34009;-71
2021/12/23 00:23:41;;;;;;;38.13;17.57;;;;;;;0.93;48.53;101610.34;5386051;32;36500;-65
2021/12/23 00:26:44;;;;;;;37.93;16.67;;;;;;;0.47;49.20;101602.50;5387126;32;34435;-70
2021/12/23 00:29:47;;;;;;;36.93;18.70;;;;;;;-0.29;51.86;101613.66;5390072;32;33077;-67
2021/12/23 00:32:49;;;;;;;38.20;17.60;;;;;;;0.75;49.47;101610.84;5387020;32;32901;-64
2021/12/23 00:35:53;;;;;;;39.47;17.05;;;;;;;0.76;49.56;101599.63;5347231;32;35133;-65
2021/12/23 00:39:02;;;;;;;34.37;18.30;;;;;;;0.99;48.86;101615.63;5370122;32;34304;-64
2021/12/23 00:42:09;;;;;;;40.20;17.47;;;;;;;0.75;49.67;101610.84;5350120;32;35489;-64
2021/12/23 00:45:11;;;;;;;37.07;18.63;;;;;;;0.66;49.90;101608.94;5394332;32;33916;-66
2021/12/23 00:48:14;;;;;;;37.77;18.13;;;;;;;0.47;50.21;101605.09;5382734;32;35401;-71
2021/12/23 00:51:20;;;;;;;39.47;17.57;;;;;;;0.23;50.74;101601.97;5372379;32;35279;-70
2021/12/23 00:54:23;;;;;;;38.60;18.13;;;;;;;0.30;50.98;101610.72;5382332;32;32846;-66
2021/12/23 00:57:30;;;;;;;39.47;17.97;;;;;;;0.63;49.87;101606.28;5382559;32;35633;-65
2021/12/23 01:00:34;;;;;;;37.87;18.30;;;;;;;0.75;49.41;101608.25;5371939;32;33599;-69
2021/12/23 01:03:37;;;;;;;38.40;18.73;;;;;;;0.13;51.44;101610.34;5390013;32;34484;-69
2021/12/23 01:06:41;;;;;;;39.20;19.83;;;;;;;-0.23;52.67;101608.66;5374652;32;33635;-70
2021/12/23 01:09:45;;;;;;;40.65;21.05;;;;;;;-0.76;53.88;101599.56;5407019;32;35065;-70
2021/12/23 01:12:52;;;;;;;39.53;18.62;;;;;;;-0.89;55.94;101606.09;5372237;32;33657;-70
2021/12/23 01:19:11;;;;;;;37.03;17.67;;;;;;;0.49;50.09;101597.34;5377626;32;32812;-64
2021/12/23 01:22:14;;;;;;;39.20;17.80;;;;;;;0.91;48.77;101591.31;5389652;32;33967;-71
2021/12/23 01:25:17;;;;;;;39.17;17.60;;;;;;;0.64;49.46;101594.22;5375382;32;34269;-70
2021/12/23 01:28:29;;;;;;;40.33;19.13;;;;;;;0.59;49.31;101582.91;5349343;32;34940;-65
2021/12/23 01:31:38;;;;;;;41.83;19.03;;;;;;;0.42;49.62;101586.00;5384463;32;33437;-64
2021/12/23 01:34:42;;;;;;;33.60;16.30;;;;;;;0.70;48.93;101571.91;5386490;32;34198;-64
2021/12/23 01:37:45;;;;;;;37.93;17.53;;;;;;;0.69;48.85;101577.06;5390719;32;33938;-65
2021/12/23 01:40:51;;;;;;;34.60;17.00;;;;;;;0.79;48.66;101576.44;5370015;32;33284;-65
2021/12/23 01:43:56;;;;;;;38.00;17.73;;;;;;;0.71;48.30;101572.78;5361767;32;36312;-69
2021/12/23 01:47:00;;;;;;;36.33;17.70;;;;;;;0.21;49.57;101577.78;5390910;32;34619;-70
2021/12/23 01:50:07;;;;;;;38.63;17.23;;;;;;;-0.55;51.88;101580.31;5350840;32;34071;-65
2021/12/23 01:53:11;;;;;;;38.20;17.30;;;;;;;0.03;50.82;101572.22;5379871;32;33101;-69
2021/12/23 01:56:17;;;;;;;35.70;17.10;;;;;;;-0.17;50.40;101569.16;5356313;32;33423;-65
2021/12/23 01:59:20;;;;;;;38.10;16.83;;;;;;;-0.13;51.25;101561.53;5391570;32;33177;-68
2021/12/23 02:02:25;;;;;;;34.73;17.37;;;;;;;0.02;51.30;101554.97;5373244;32;34294;-70
2021/12/23 02:05:30;;;;;;;35.25;17.30;;;;;;;0.20;50.12;101552.78;5385153;32;33125;-64
2021/12/23 02:08:33;;;;;;;36.67;17.37;;;;;;;0.47;49.60;101555.94;5378173;32;33762;-70
2021/12/23 02:11:36;;;;;;;40.90;18.23;;;;;;;0.46;48.97;101543.84;5356279;32;32640;-69
2021/12/23 02:14:40;;;;;;;36.70;17.10;;;;;;;-0.63;52.27;101542.22;5383750;32;33809;-64
2021/12/23 02:17:44;;;;;;;36.78;17.30;;;;;;;-0.18;52.11;101539.88;5383438;32;33163;-65
2021/12/23 02:20:48;;;;;;;37.13;17.77;;;;;;;-0.07;51.12;101551.31;5359944;32;34171;-69
2021/12/23 02:23:52;;;;;;;35.20;17.12;;;;;;;-0.14;51.00;101544.25;5371517;32;35450;-69
2021/12/23 02:26:57;;;;;;;33.37;16.83;;;;;;;-0.98;53.52;101556.78;5384137;32;33101;-65
2021/12/23 02:30:08;;;;;;;34.47;18.23;;;;;;;-0.23;51.22;101535.44;5368879;32;33986;-64
2021/12/23 02:33:13;;;;;;;34.53;16.73;;;;;;;-1.16;54.61;101544.28;5370784;32;33967;-69
2021/12/23 02:36:26;;;;;;;36.27;15.90;;;;;;;0.50;50.13;101532.72;5362613;32;34862;-68
2021/12/23 02:39:30;;;;;;;32.97;16.47;;;;;;;0.23;50.86;101520.09;5391248;32;34209;-70
2021/12/23 02:42:33;;;;;;;33.65;16.58;;;;;;;0.57;49.52;101522.50;5370254;32;32757;-68
2021/12/23 02:45:36;;;;;;;32.03;15.70;;;;;;;-0.18;51.37;101513.16;5386185;32;34552;-65
2021/12/23 02:48:41;;;;;;;35.10;15.80;;;;;;;0.52;50.06;101512.94;5361645;32;34397;-65
2021/12/23 02:51:45;;;;;;;36.83;16.40;;;;;;;-0.27;51.40;101511.22;5369139;32;34352;-64
2021/12/23 02:54:55;;;;;;;;;;;;;;;0.34;50.62;101499.62;5372671;32;35111;-65
2021/12/23 02:57:58;;;;;;;31.67;15.20;;;;;;;-0.37;51.28;101497.25;5385609;32;34770;-69
2021/12/23 03:01:06;;;;;;;34.43;15.50;;;;;;;-0.47;52.88;101500.44;5362070;32;34317;-64
2021/12/23 03:04:11;;;;;;;33.13;14.97;;;;;;;-0.08;51.28;101499.59;5385324;32;33177;-65
2021/12/23 03:07:19;;;;;;;32.30;15.47;;;;;;;0.22;50.27;101496.78;5385264;32;33196;-69
2021/12/23 03:10:24;;;;;;;34.33;16.63;;;;;;;0.39;49.70;101489.41;5372559;32;34270;-69
2021/12/23 03:13:27;;;;;;;33.77;15.63;;;;;;;0.21;50.08;101484.72;5374345;32;35118;-65
2021/12/23 03:16:31;;;;;;;;;;;;;;;0.89;48.66;101481.69;5395731;32;33877;-65
2021/12/23 03:19:36;;;;;;;33.95;15.25;;;;;;;0.48;49.56;101497.31;5388367;32;33472;-69
2021/12/23 03:22:38;;;;;;;31.77;14.90;;;;;;;0.62;49.00;101492.41;5389239;32;34555;-64
2021/12/23 03:25:41;;;;;;;32.30;15.00;;;;;;;0.60;49.41;101494.97;5381591;32;32914;-70
2021/12/23 03:28:43;;;;;;;36.30;16.90;;;;;;;0.63;49.38;101481.22;5384934;32;34227;-69
2021/12/23 03:31:46;;;;;;;34.53;15.27;;;;;;;0.31;50.21;101493.50;5377687;32;34184;-69
2021/12/23 03:34:49;;;;;;;30.40;14.57;;;;;;;-0.46;51.62;101486.69;5379924;32;34604;-64
2021/12/23 03:37:55;;;;;;;30.40;14.73;;;;;;;-0.08;51.94;101478.91;5387094;32;33482;-65
2021/12/23 03:40:58;;;;;;;28.60;14.20;;;;;;;0.05;51.66;101482.62;5361170;32;32878;-70
2021/12/23 03:44:01;;;;;;;39.47;16.00;;;;;;;0.05;51.49;101468.00;5378941;32;34062;-65
2021/12/23 03:47:07;;;;;;;33.97;16.47;;;;;;;-0.17;51.91;101471.84;5371120;32;36158;-69
2021/12/23 03:50:10;;;;;;;30.07;14.73;;;;;;;0.35;50.20;101472.94;5379694;32;34256;-69
2021/12/23 03:53:17;;;;;;;36.58;14.45;;;;;;;0.23;50.96;101476.12;5377928;32;34894;-68
2021/12/23 03:56:22;;;;;;;32.47;14.70;;;;;;;0.60;49.78;101463.06;5342392;32;33800;-65
2021/12/23 03:59:29;;;;;;;29.90;14.37;;;;;;;-0.43;52.36;101463.50;5369450;32;34168;-65
2021/12/23 04:02:34;;;;;;;33.93;16.20;;;;;;;0.19;51.09;101466.59;5381216;32;32832;-65
2021/12/23 04:05:39;;;;;;;30.47;14.20;;;;;;;-0.07;51.65;101468.59;5388989;32;32997;-65
2021/12/23 04:08:48;;;;;;;34.57;15.87;;;;;;;-0.08;51.61;101466.88;5358095;32;33410;-65
2021/12/23 04:11:54;;;;;;;32.73;14.37;;;;;;;-0.27;52.91;101469.88;5380903;32;33645;-65
2021/12/23 04:15:03;;;;;;;31.60;15.13;;;;;;;-0.36;52.84;101464.53;5354959;32;33036;-65
2021/12/23 04:18:12;;;;;;;31.27;15.10;;;;;;;-0.50;53.02;101460.75;5372682;32;34452;-70
2021/12/23 04:21:15;;;;;;;31.85;15.18;;;;;;;-0.33;52.97;101460.28;5361006;32;34510;-65
2021/12/23 04:24:18;;;;;;;30.67;14.83;;;;;;;-0.14;51.70;101451.22;5373208;32;34012;-69
2021/12/23 04:27:23;;;;;;;35.63;16.97;;;;;;;0.39;50.18;101448.00;5384714;32;35503;-64
2021/12/23 04:30:27;;;;;;;37.73;15.83;;;;;;;-0.80;53.44;101446.28;5364118;32;33507;-64
2021/12/23 04:33:30;;;;;;;36.28;17.02;;;;;;;-0.01;51.49;101448.06;5365987;32;34393;-70
2021/12/23 04:36:34;;;;;;;42.03;19.03;;;;;;;0.05;51.30;101442.16;5385088;32;33048;-68
2021/12/23 04:39:37;;;;;;;43.87;20.30;;;;;;;-1.38;55.42;101450.84;5361615;32;34655;-64
2021/12/23 04:42:41;;;;;;;55.33;24.63;;;;;;;-1.94;57.92;101446.72;5368768;32;34725;-68
2021/12/23 04:45:46;;;;;;;49.77;24.50;;;;;;;-1.90;58.26;101453.72;5361941;32;34606;-64
2021/12/23 04:48:50;;;;;;;50.03;24.33;;;;;;;-2.25;59.57;101448.41;5381830;32;33541;-64
2021/12/23 04:51:56;;;;;;;58.87;25.40;;;;;;;-2.08;59.64;101446.31;5386070;32;34077;-70
2021/12/23 04:55:00;;;;;;;55.30;24.85;;;;;;;-2.79;61.77;101450.16;5365476;32;32738;-64
2021/12/23 04:58:07;;;;;;;50.47;23.77;;;;;;;-2.64;61.50;101442.94;5371829;32;34831;-65
2021/12/23 05:01:20;;;;;;;51.03;24.30;;;;;;;-1.83;59.05;101445.31;5370538;32;34868;-64
2021/12/23 05:04:25;;;;;;;59.37;25.63;;;;;;;-2.86;61.99;101446.50;5392484;32;34160;-69
2021/12/23 05:07:28;;;;;;;63.80;26.87;;;;;;;-2.80;61.77;101443.25;5385311;32;33964;-70
2021/12/23 05:10:33;;;;;;;56.73;26.50;;;;;;;-2.85;62.25;101448.25;5368723;32;34569;-69
2021/12/23 05:13:36;;;;;;;51.50;24.20;;;;;;;-3.01;63.17;101453.75;5381637;32;34863;-70
2021/12/23 05:16:41;;;;;;;46.47;23.27;;;;;;;-2.80;63.11;101448.41;5359578;32;36498;-65
2021/12/23 05:19:44;;;;;;;55.60;25.20;;;;;;;-1.26;58.36;101434.81;5386740;32;35147;-69
2021/12/23 05:22:48;;;;;;;;;;;;;;;-2.67;62.05;101445.38;5373824;32;34219;-68
2021/12/23 05:25:52;;;;;;;51.03;25.17;;;;;;;-1.20;58.16;101432.41;5394702;32;35055;-69
2021/12/23 05:28:57;;;;;;;54.47;25.40;;;;;;;-1.82;59.70;101430.72;5364915;32;36039;-69
2021/12/23 05:32:00;;;;;;;57.53;25.03;;;;;;;-2.65;62.12;101427.41;5394390;32;34331;-65
2021/12/23 05:35:07;;;;;;;53.97;24.83;;;;;;;-1.85;60.48;101420.34;5393208;32;34388;-64
2021/12/23 05:38:13;;;;;;;54.30;24.93;;;;;;;-2.26;61.08;101422.59;5388291;32;33530;-69
2021/12/23 05:41:17;;;;;;;51.72;24.58;;;;;;;-1.87;60.55;101430.59;5365580;32;34493;-64
2021/12/23 05:44:20;;;;;;;42.27;20.07;;;;;;;-1.10;58.37;101426.63;5377103;32;35289;-64
2021/12/23 05:47:24;;;;;;;32.40;14.53;;;;;;;-1.41;58.62;101442.19;5389332;32;34301;-65
2021/12/23 05:50:32;;;;;;;32.10;13.70;;;;;;;-0.28;53.73;101431.97;5355073;32;33308;-66
2021/12/23 05:53:34;;;;;;;28.67;13.23;;;;;;;0.24;51.35;101430.47;5388074;32;34766;-65
2021/12/23 05:56:40;;;;;;;29.23;13.97;;;;;;;0.21;49.95;101435.59;5378034;32;34805;-65
2021/12/23 05:59:45;;;;;;;28.37;12.63;;;;;;;0.41;50.45;101429.09;5390393;32;33198;-70
2021/12/23 06:02:49;;;;;;;28.97;13.33;;;;;;;0.74;48.77;101420.19;5386653;32;34251;-65
2021/12/23 06:05:56;;;;;;;33.60;14.27;;;;;;;0.04;50.87;101422.31;5369972;32;33108;-69
2021/12/23 06:09:01;;;;;;;33.83;13.83;;;;;;;0.66;48.82;101416.59;5350053;32;35465;-65
2021/12/23 06:12:05;;;;;;;26.63;13.60;;;;;;;0.55;49.08;101406.06;5379798;32;34558;-70
2021/12/23 06:15:11;;;;;;;33.27;14.33;;;;;;;0.60;49.32;101401.84;5364557;32;34056;-65
2021/12/23 06:18:14;;;;;;;31.50;14.43;;;;;;;0.11;50.68;101412.97;5387637;32;33456;-65
2021/12/23 06:21:20;;;;;;;31.77;14.17;;;;;;;0.11;51.51;101413.84;5377287;32;33195;-65
2021/12/23 06:24:23;;;;;;;29.33;13.60;;;;;;;-0.38;52.97;101406.81;5380890;32;32575;-64
2021/12/23 06:27:26;;;;;;;27.20;13.68;;;;;;;-0.03;52.05;101408.41;5387424;32;34659;-65
2021/12/23 06:30:32;;;;;;;29.50;14.07;;;;;;;0.03;51.36;101399.03;5361216;32;32898;-70
2021/12/23 06:33:35;;;;;;;31.33;14.23;;;;;;;0.31;51.13;101409.03;5383381;32;33597;-65
2021/12/23 06:36:40;;;;;;;28.62;13.25;;;;;;;0.28;50.68;101409.00;5371570;32;34874;-70
2021/12/23 06:39:46;;;;;;;31.90;13.57;;;;;;;-0.25;52.94;101406.22;5385524;32;34277;-62
2021/12/23 06:42:50;;;;;;;27.23;13.87;;;;;;;0.86;48.91;101399.69;5382453;32;33843;-69
2021/12/23 06:45:52;;;;;;;29.67;13.55;;;;;;;1.06;48.11;101400.88;5377529;32;34804;-69
2021/12/23 06:48:58;;;;;;;33.27;13.90;;;;;;;0.16;50.55;101414.81;5383392;32;33546;-71
2021/12/23 06:52:03;;;;;;;32.53;14.63;;;;;;;-0.46;51.99;101421.22;5356926;32;34448;-69
2021/12/23 06:55:09;;;;;;;26.60;13.20;;;;;;;-0.13;51.46;101416.81;5385689;32;34076;-67
2021/12/23 06:58:14;;;;;;;33.00;13.87;;;;;;;0.07;51.16;101414.62;5353295;32;34762;-66
2021/12/23 07:01:21;;;;;;;32.23;13.63;;;;;;;-0.50;52.01;101409.13;5384205;32;33023;-74
2021/12/23 07:04:34;;;;;;;31.30;14.27;;;;;;;-0.33;52.94;101418.94;5347015;32;33701;-68
2021/12/23 07:08:08;;;;;;;26.10;9.40;;;;;;;0.18;51.61;101417.41;5346485;32;34201;-76
2021/12/23 07:11:14;;;;;;;23.30;10.80;;;;;;;3.45;62.26;101403.50;5349300;32;34961;-74
2021/12/23 07:14:17;;;;;;;28.67;12.97;;;;;;;5.82;49.56;101381.25;5386238;32;34831;-62
2021/12/23 07:17:20;;;;;;;25.80;12.73;;;;;;;7.03;36.26;101376.19;5382964;32;34015;-64
2021/12/23 07:20:24;;;;;;;27.60;13.20;;;;;;;5.66;36.68;101366.50;5379974;32;34290;-69
2021/12/23 07:23:29;;;;;;;26.70;13.13;;;;;;;4.58;38.37;101380.53;5350409;32;33346;-64
2021/12/23 07:26:32;;;;;;;26.57;12.87;;;;;;;3.94;39.49;101377.78;5368232;32;34026;-60
2021/12/23 07:29:36;;;;;;;29.37;13.20;;;;;;;3.25;41.13;101391.25;5358583;32;34650;-64
2021/12/23 07:32:38;;;;;;;28.37;12.47;;;;;;;2.78;42.55;101395.22;5352756;32;34232;-65
2021/12/23 07:35:43;;;;;;;;;;;;;;;1.60;44.78;101386.13;5353271;32;34788;-60
2021/12/23 07:38:46;;;;;;;24.20;11.63;;;;;;;1.40;45.30;101393.63;5374071;32;34298;-70
2021/12/23 07:41:51;;;;;;;24.83;11.67;;;;;;;1.43;45.88;101398.84;5358282;32;33883;-57
2021/12/23 07:45:10;;;;;;;30.07;12.33;;;;;;;1.75;44.91;101407.06;5349811;32;32466;-62
2021/12/23 07:48:13;;;;;;;31.30;14.17;;;;;;;1.42;45.96;101402.31;5359312;32;34549;-64
2021/12/23 07:51:16;;;;;;;27.70;12.50;;;;;;;1.59;45.22;101398.19;5363784;32;33930;-58
2021/12/23 07:54:18;;;;;;;24.90;11.03;;;;;;;1.19;46.59;101377.78;5395709;32;34999;-65
2021/12/23 07:57:21;;;;;;;27.70;11.90;;;;;;;1.89;44.21;101374.41;5365631;32;34728;-60
2021/12/23 08:00:23;;;;;;;25.73;11.80;;;;;;;1.44;45.43;101369.50;5366988;32;33003;-60
2021/12/23 08:03:27;;;;;;;23.10;11.10;;;;;;;1.14;46.30;101369.06;5354879;32;34497;-67
2021/12/23 08:06:31;;;;;;;21.73;10.87;;;;;;;1.73;44.76;101363.81;5352382;32;33804;-61
2021/12/23 08:09:34;;;;;;;29.30;11.10;;;;;;;1.20;46.06;101363.97;5375926;32;33088;-59
2021/12/23 08:12:37;;;;;;;24.20;10.77;;;;;;;1.13;45.48;101357.84;5357061;32;34716;-58
2021/12/23 08:15:42;;;;;;;25.30;10.77;;;;;;;0.89;46.93;101358.31;5388497;32;35054;-60
2021/12/23 08:18:47;;;;;;;23.20;10.87;;;;;;;0.50;47.00;101354.22;5357318;32;34365;-60
2021/12/23 08:21:51;;;;;;;22.90;10.70;;;;;;;0.86;47.15;101344.47;5354795;32;34195;-64
2021/12/23 08:24:53;;;;;;;;;;;;;;;1.29;45.55;101349.44;5374978;32;33171;-62
2021/12/23 08:27:56;;;;;;;24.50;9.80;;;;;;;1.52;44.58;101344.56;5381406;32;34678;-61
2021/12/23 08:31:00;;;;;;;23.25;9.45;;;;;;;1.12;45.50;101343.16;5384309;32;32872;-61
2021/12/23 08:34:05;;;;;;;21.53;10.10;;;;;;;0.91;45.66;101346.28;5380336;32;33024;-61
2021/12/23 08:37:11;;;;;;;18.08;8.27;;;;;;;1.44;43.84;101341.00;5355725;32;34725;-63
2021/12/23 08:40:23;;;;;;;21.33;8.93;;;;;;;1.75;42.16;101337.09;5361108;32;34335;-65
2021/12/23 08:43:26;;;;;;;19.37;9.17;;;;;;;1.65;42.38;101342.13;5364828;32;33892;-61
2021/12/23 08:46:31;;;;;;;;;;;;;;;0.67;44.80;101345.91;5388815;32;33022;-65
2021/12/23 08:49:36;;;;;;;20.67;8.33;;;;;;;1.19;44.25;101344.97;5380227;32;34256;-65
2021/12/23 08:52:47;;;;;;;22.20;9.43;;;;;;;1.87;42.04;101344.16;5347959;32;33415;-63
2021/12/23 08:55:51;;;;;;;19.97;9.00;;;;;;;0.98;43.62;101345.53;5340550;32;33410;-61
2021/12/23 08:58:56;;;;;;;25.93;9.57;;;;;;;1.60;42.91;101347.25;5362683;32;34682;-72
2021/12/23 09:02:03;;;;;;;24.27;9.80;;;;;;;1.01;44.49;101342.97;5346162;32;33868;-63
2021/12/23 09:05:39;;;;;;;22.33;9.77;;;;;;;1.57;42.90;101345.50;5345046;32;33181;-61
2021/12/23 09:09:11;;;;;;;18.47;8.97;;;;;;;0.57;44.46;101338.81;5358457;32;35350;-66
2021/12/23 09:12:15;;;;;;;21.10;8.90;;;;;;;1.79;41.32;101341.44;5374807;32;35058;-63
2021/12/23 09:15:19;;;;;;;18.07;8.20;;;;;;;1.98;41.22;101332.16;5355361;32;34931;-61
2021/12/23 09:18:22;;;;;;;23.00;9.27;;;;;;;1.99;41.67;101317.47;5374238;32;34574;-68
2021/12/23 09:21:25;;;;;;;19.30;8.90;;;;;;;2.38;40.35;101291.03;5358350;32;34117;-64
2021/12/23 09:24:38;;;;;;;19.20;9.70;;;;;;;2.17;40.03;101297.78;5350597;32;34973;-60
2021/12/23 09:27:58;;;;;;;17.97;9.50;;;;;;;1.60;41.66;101304.06;5359375;32;35645;-65
2021/12/23 09:34:25;;;;;;;26.03;11.03;;;;;;;1.88;41.16;101288.84;5364384;32;34128;-61
2021/12/23 09:37:30;;;;;;;18.60;8.30;;;;;;;2.22;40.29;101265.84;5368872;32;33591;-60
2021/12/23 09:40:35;;;;;;;19.62;8.40;;;;;;;2.55;39.46;101268.69;5362119;32;35049;-61
2021/12/23 09:43:41;;;;;;;20.53;9.60;;;;;;;1.07;43.05;101273.16;5343145;32;32908;-67
2021/12/23 09:46:45;;;;;;;18.00;7.83;;;;;;;2.09;40.76;101262.25;5372833;32;35723;-63
2021/12/23 09:49:49;;;;;;;18.20;9.03;;;;;;;2.29;40.15;101259.84;5373457;32;32976;-61
2021/12/23 09:52:52;;;;;;;20.43;9.00;;;;;;;2.29;40.04;101257.25;5374520;32;33117;-69
2021/12/23 09:55:56;;;;;;;24.23;10.95;;;;;;;2.55;39.95;101255.72;5375482;32;33853;-68
2021/12/23 09:59:09;;;;;;;18.73;9.07;;;;;;;1.21;42.24;101257.81;5372154;32;33954;-63
2021/12/23 10:02:16;;;;;;;21.17;8.67;;;;;;;2.67;39.31;101248.03;5370148;32;33881;-61
2021/12/23 10:05:22;;;;;;;20.43;8.83;;;;;;;2.74;39.70;101253.28;5370221;32;34161;-67
2021/12/23 10:08:27;;;;;;;17.73;8.37;;;;;;;2.28;40.27;101251.19;5377635;32;34407;-68
2021/12/23 10:32:26;;;;;;;20.03;8.33;;;;;;;3.39;37.70;101208.56;5373439;32;34605;-67
2021/12/23 10:39:21;;;;;;;17.37;7.53;;;;;;;3.48;37.84;101193.03;5378004;32;34187;-69
2021/12/23 10:42:28;;;;;;;17.60;7.90;;;;;;;3.06;38.91;101184.19;5383817;32;33925;-69
2021/12/23 10:45:41;;;;;;;19.77;8.87;;;;;;;2.47;40.49;101178.69;5377783;32;34543;-68
2021/12/23 10:52:19;;;;;;;16.37;8.02;;;;;;;3.11;38.73;101150.47;5374303;32;34796;-62
2021/12/23 10:58:26;;;;;;;19.37;9.23;;;;;;;2.67;39.77;101144.22;5382696;32;34107;-68
2021/12/23 11:01:31;;;;;;;16.03;7.37;;;;;;;3.64;37.96;101132.37;5364966;32;34138;-63
2021/12/23 11:05:13;;;;;;;20.02;8.63;;;;;;;2.78;39.65;101126.09;5369616;32;34263;-62
2021/12/23 11:08:30;;;;;;;16.23;7.80;;;;;;;3.68;37.94;101123.75;5376696;32;34343;-61
2021/12/23 11:42:02;;;;;;;18.43;6.93;;;;;;;3.82;36.84;101039.66;5385927;32;34300;-68
2021/12/23 11:45:08;;;;;;;16.70;7.53;;;;;;;3.80;36.84;101042.28;5377440;32;32645;-61
2021/12/23 11:48:11;;;;;;;15.63;7.12;;;;;;;3.66;37.52;101020.59;5351405;32;35182;-61
2021/12/23 11:51:21;;;;;;;16.83;7.62;;;;;;;2.76;39.20;101018.78;5397664;32;34229;-70
2021/12/23 11:54:29;;;;;;;17.33;7.33;;;;;;;4.08;37.10;101014.47;5389128;32;34390;-69
2021/12/23 11:57:36;;;;;;;16.43;7.33;;;;;;;3.45;38.13;101014.53;5385331;32;33975;-68
2021/12/23 12:00:42;;;;;;;17.17;6.47;;;;;;;3.98;36.93;101005.81;5381467;32;34681;-69
2021/12/23 12:04:01;;;;;;;12.03;5.70;;;;;;;4.05;36.51;100998.84;5364815;32;34974;-61
2021/12/23 12:07:20;;;;;;;13.13;5.83;;;;;;;3.70;37.03;101002.41;5386898;32;32716;-68
2021/12/23 12:10:27;;;;;;;11.87;5.00;;;;;;;3.52;37.24;100986.81;5374335;32;35073;-62
2021/12/23 12:13:34;;;;;;;14.70;5.90;;;;;;;3.48;37.10;100987.72;5371400;32;33867;-68
2021/12/23 12:16:37;;;;;;;13.33;5.40;;;;;;;2.62;39.49;100995.38;5372958;32;35107;-61
2021/12/23 12:19:56;;;;;;;13.57;5.60;;;;;;;3.64;37.25;100984.22;5381507;32;34891;-62
2021/12/23 12:23:00;;;;;;;14.10;5.77;;;;;;;3.36;37.47;100979.91;5386763;32;34288;-68
2021/12/23 12:26:10;;;;;;;13.00;5.23;;;;;;;3.21;38.13;100971.22;5382043;32;34854;-62
2021/12/23 12:29:15;;;;;;;12.47;5.60;;;;;;;3.23;38.03;100974.72;5382631;32;34060;-61
2021/12/23 12:32:37;;;;;;;12.63;5.90;;;;;;;3.41;37.50;100972.97;5380476;32;36410;-63
2021/12/23 12:35:41;;;;;;;12.87;5.70;;;;;;;3.23;38.14;100953.06;5388367;32;33386;-62
2021/12/23 12:39:15;;;;;;;11.63;5.37;;;;;;;3.69;37.38;100953.03;5384569;32;34023;-68
2021/12/23 12:42:29;;;;;;;12.07;4.95;;;;;;;4.05;36.08;100945.09;5379366;32;33394;-68
2021/12/23 12:45:35;;;;;;;12.68;5.50;;;;;;;3.40;37.35;100948.72;5377909;32;34739;-62
2021/12/23 12:49:08;;;;;;;13.63;5.67;;;;;;;3.69;36.95;100932.22;5381302;32;33727;-70
2021/12/23 12:52:33;;;;;;;14.97;5.63;;;;;;;3.54;37.03;100948.69;5380187;32;34789;-68
2021/12/23 12:55:38;;;;;;;16.37;7.43;;;;;;;3.61;37.04;100941.78;5389732;32;33967;-62
2021/12/23 12:58:51;;;;;;;12.17;5.43;;;;;;;3.18;37.48;100939.22;5388475;32;34064;-63
2021/12/23 13:01:55;;;;;;;12.80;5.60;;;;;;;3.49;37.21;100937.47;5375099;32;34091;-61
2021/12/23 13:05:08;;;;;;;14.33;5.93;;;;;;;3.49;37.44;100940.06;5389741;32;36676;-69
2021/12/23 13:08:20;;;;;;;14.03;5.33;;;;;;;3.40;37.10;100930.53;5379939;32;32896;-69
2021/12/23 13:11:26;;;;;;;;;;;;;;;4.00;36.22;100920.88;5389318;32;34837;-62
2021/12/23 13:15:16;;;;;;;12.23;4.60;;;;;;;4.43;35.51;100904.16;5390278;32;34261;-62
2021/12/23 13:18:21;;;;;;;13.80;5.45;;;;;;;3.79;34.68;100893.16;5363734;32;34089;-67
2021/12/23 13:21:24;;;;;;;13.07;5.03;;;;;;;3.47;36.09;100892.41;5371422;32;34922;-69
2021/12/23 13:24:28;;;;;;;13.33;4.97;;;;;;;3.71;35.44;100894.06;5377463;32;34125;-68
2021/12/23 13:27:33;;;;;;;10.60;4.90;;;;;;;3.55;35.84;100895.00;5386200;32;36092;-63
2021/12/23 13:30:40;;;;;;;13.43;5.17;;;;;;;3.61;35.82;100888.06;5356732;32;34868;-61
2021/12/23 13:33:53;;;;;;;11.97;4.97;;;;;;;3.63;35.09;100890.66;5360274;32;36158;-61
2021/12/23 13:36:58;;;;;;;12.73;6.17;;;;;;;3.15;36.40;100875.13;5377011;32;34552;-63
2021/12/23 13:40:01;;;;;;;14.53;5.73;;;;;;;3.62;35.71;100862.94;5367066;32;33758;-69
2021/12/23 13:43:04;;;;;;;11.60;5.33;;;;;;;3.11;36.08;100880.34;5393907;32;34158;-69
2021/12/23 13:46:10;;;;;;;11.75;5.32;;;;;;;3.37;36.04;100862.12;5355262;32;37461;-62
2021/12/23 13:49:12;;;;;;;17.30;6.10;;;;;;;3.40;35.89;100855.16;5357862;32;33864;-63
2021/12/23 13:52:22;;;;;;;14.57;6.10;;;;;;;2.95;37.00;100863.87;5376796;32;34524;-68
2021/12/23 13:55:31;;;;;;;13.97;5.67;;;;;;;3.55;35.87;100841.28;5381875;32;34182;-62
2021/12/23 13:58:34;;;;;;;12.47;5.50;;;;;;;2.80;37.04;100846.59;5387248;32;34807;-68
2021/12/23 14:01:51;;;;;;;12.30;5.57;;;;;;;3.58;36.04;100848.19;5392257;32;34695;-62
2021/12/23 14:05:02;;;;;;;12.83;5.40;;;;;;;3.76;35.51;100846.41;5385403;32;35346;-70
2021/12/23 14:08:04;;;;;;;12.20;5.27;;;;;;;3.08;35.93;100837.03;5376646;32;33193;-61
2021/12/23 14:11:07;;;;;;;14.70;6.47;;;;;;;3.12;36.35;100843.97;5391912;32;35534;-62
2021/12/23 14:14:21;;;;;;;12.97;5.97;;;;;;;3.48;35.89;100856.03;5391163;32;35542;-68
2021/12/23 14:17:39;;;;;;;17.93;7.20;;;;;;;3.69;35.34;100851.63;5382928;32;35011;-69
2021/12/23 14:24:03;;;;;;;13.77;5.90;;;;;;;3.31;35.83;100825.75;5375706;32;35392;-62
2021/12/23 14:27:09;;;;;;;12.97;6.20;;;;;;;2.82;37.12;100818.03;5367657;32;35909;-62
2021/12/23 14:30:11;;;;;;;15.05;6.10;;;;;;;3.16;36.67;100814.53;5370711;32;34078;-62
2021/12/23 14:33:45;;;;;;;16.17;6.33;;;;;;;3.34;36.19;100810.16;5376426;32;34202;-62
2021/12/23 14:36:56;;;;;;;14.87;5.62;;;;;;;3.21;36.32;100804.97;5366135;32;36398;-61
2021/12/23 14:39:59;;;;;;;15.63;5.90;;;;;;;2.88;36.75;100805.91;5376664;32;34611;-62
2021/12/23 14:43:03;;;;;;;14.02;6.28;;;;;;;3.07;36.87;100798.94;5380468;32;34731;-62
2021/12/23 14:46:08;;;;;;;17.17;6.20;;;;;;;3.27;36.63;100798.91;5385191;32;34323;-62
2021/12/23 14:52:53;;;;;;;14.73;6.60;;;;;;;3.26;36.62;100797.19;5387636;32;33609;-61
2021/12/23 14:55:58;;;;;;;16.13;6.57;;;;;;;3.30;36.98;100804.09;5368581;32;33854;-68
2021/12/23 14:59:10;;;;;;;12.77;6.37;;;;;;;2.62;38.10;100805.91;5388284;32;34130;-69
2021/12/23 15:02:17;;;;;;;21.67;6.87;;;;;;;3.43;36.48;100795.41;5392485;32;34172;-61
2021/12/23 15:05:26;;;;;;;15.57;6.57;;;;;;;3.22;37.13;100808.44;5383632;32;32500;-61
2021/12/23 15:08:31;;;;;;;13.63;5.87;;;;;;;2.95;37.40;100819.75;5387261;32;34431;-67
2021/12/23 15:11:34;;;;;;;13.90;6.33;;;;;;;3.56;36.38;100816.16;5380031;32;35807;-68
2021/12/23 15:14:47;;;;;;;14.67;5.90;;;;;;;3.39;36.42;100767.69;5377961;32;33899;-61
2021/12/23 15:17:54;;;;;;;12.63;5.97;;;;;;;3.01;37.20;100775.59;5386163;32;35520;-61
2021/12/23 15:20:58;;;;;;;14.67;6.70;;;;;;;2.48;38.46;100786.03;5365322;32;34184;-67
2021/12/23 15:24:14;;;;;;;14.70;6.03;;;;;;;2.77;37.38;100760.06;5368063;32;34026;-62
2021/12/23 15:27:21;;;;;;;14.47;5.97;;;;;;;3.04;36.96;100748.78;5389919;32;34323;-68
2021/12/23 15:30:29;;;;;;;15.97;6.53;;;;;;;2.62;37.84;100753.16;5382897;32;34305;-62
2021/12/23 15:33:33;;;;;;;13.57;5.83;;;;;;;2.85;37.50;100735.81;5380481;32;34535;-62
2021/12/23 15:36:40;;;;;;;15.50;6.73;;;;;;;3.13;37.09;100738.34;5377755;32;33872;-62
2021/12/23 15:39:47;;;;;;;13.67;6.23;;;;;;;3.15;37.00;100731.41;5398380;32;34483;-62
2021/12/23 15:42:51;;;;;;;13.73;5.70;;;;;;;3.36;36.73;100731.34;5389856;32;34172;-62